createdAt,value
2018-07-05T00:02:22.541Z,17.10
2018-07-05T00:05:02.125Z,17.10
2018-07-05T00:07:41.504Z,16.90
2018-07-05T00:10:21.031Z,16.80
2018-07-05T00:13:00.455Z,16.70
2018-07-05T00:15:40.765Z,16.70
2018-07-05T00:18:20.330Z,16.60
2018-07-05T00:20:59.846Z,16.60
2018-07-05T00:26:12.928Z,16.60
2018-07-05T00:28:52.582Z,16.60
2018-07-05T00:31:32.071Z,16.60
2018-07-05T00:34:11.686Z,16.50
2018-07-05T00:36:51.036Z,16.50
2018-07-05T00:39:34.115Z,16.50
2018-07-05T00:42:13.757Z,16.50
2018-07-05T00:44:53.278Z,16.40
2018-07-05T00:47:32.872Z,16.40
2018-07-05T00:50:12.517Z,16.40
2018-07-05T00:52:55.428Z,16.50
2018-07-05T00:55:35.025Z,16.50
2018-07-05T00:58:15.000Z,16.50
2018-07-05T01:00:55.469Z,16.50
2018-07-05T01:03:35.093Z,16.40
2018-07-05T01:06:15.434Z,16.40
2018-07-05T01:08:55.863Z,16.40
2018-07-05T01:11:35.499Z,16.30
2018-07-05T01:14:15.961Z,16.30
2018-07-05T01:16:55.608Z,16.30
2018-07-05T01:19:35.241Z,16.30
2018-07-05T01:22:15.700Z,16.30
2018-07-05T01:24:55.245Z,16.20
2018-07-05T01:27:37.734Z,16.10
2018-07-05T01:32:51.711Z,16.10
2018-07-05T01:35:31.333Z,16.10
2018-07-05T01:38:14.192Z,16.10
2018-07-05T01:40:53.517Z,16.10
2018-07-05T01:43:32.976Z,16.10
2018-07-05T01:46:13.100Z,16.00
2018-07-05T01:48:52.720Z,16.00
2018-07-05T01:51:32.191Z,16.00
2018-07-05T01:54:15.424Z,16.00
2018-07-05T01:56:54.999Z,16.10
2018-07-05T02:02:08.873Z,16.10
2018-07-05T02:04:48.452Z,16.10
2018-07-05T02:07:28.121Z,16.10
2018-07-05T02:10:11.808Z,16.00
2018-07-05T02:12:52.908Z,15.90
2018-07-05T02:15:32.548Z,15.90
2018-07-05T02:18:12.121Z,15.90
2018-07-05T02:20:52.352Z,15.90
2018-07-05T02:23:31.741Z,15.90
2018-07-05T02:26:11.209Z,15.80
2018-07-05T02:28:50.669Z,15.80
2018-07-05T02:31:30.130Z,15.70
2018-07-05T02:34:09.749Z,15.60
2018-07-05T02:36:49.267Z,15.60
2018-07-05T02:39:38.825Z,15.60
2018-07-05T02:42:18.786Z,15.70
2018-07-05T02:44:58.313Z,15.60
2018-07-05T02:47:37.742Z,15.60
2018-07-05T02:50:17.439Z,15.60
2018-07-05T02:52:56.973Z,15.60
2018-07-05T02:55:40.532Z,15.50
2018-07-05T02:58:21.330Z,15.50
2018-07-05T03:01:01.946Z,15.50
2018-07-05T03:03:41.553Z,15.50
2018-07-05T03:06:21.991Z,15.50
2018-07-05T03:09:02.893Z,15.50
2018-07-05T03:11:50.143Z,15.50
2018-07-05T03:14:29.803Z,15.50
2018-07-05T03:19:43.771Z,15.60
2018-07-05T03:22:23.232Z,15.60
2018-07-05T03:25:02.705Z,15.70
2018-07-05T03:27:42.109Z,15.70
2018-07-05T03:30:21.597Z,15.70
2018-07-05T03:33:01.152Z,15.80
2018-07-05T03:35:41.612Z,15.90
2018-07-05T03:38:21.457Z,15.80
2018-07-05T03:41:12.665Z,15.90
2018-07-05T03:43:53.013Z,15.90
2018-07-05T03:46:32.533Z,15.90
2018-07-05T03:49:12.520Z,16.00
2018-07-05T03:51:52.125Z,16.00
2018-07-05T03:54:31.592Z,16.00
2018-07-05T03:57:11.304Z,16.10
2018-07-05T03:59:50.984Z,16.20
2018-07-05T04:02:30.522Z,16.60
2018-07-05T04:05:09.924Z,16.90
2018-07-05T04:07:49.400Z,17.00
2018-07-05T04:10:28.889Z,17.00
2018-07-05T04:13:08.596Z,17.00
2018-07-05T04:15:48.862Z,17.40
2018-07-05T04:18:28.560Z,18.50
2018-07-05T04:21:07.925Z,19.80
2018-07-05T04:23:47.466Z,20.20
2018-07-05T04:29:02.524Z,21.20
2018-07-05T04:31:42.089Z,21.70
2018-07-05T04:34:21.525Z,22.00
2018-07-05T04:37:01.068Z,22.60
2018-07-05T04:39:41.228Z,23.10
2018-07-05T04:42:20.760Z,23.50
2018-07-05T04:45:00.420Z,23.60
2018-07-05T04:47:40.055Z,23.30
2018-07-05T04:50:19.488Z,23.40
2018-07-05T04:52:59.067Z,23.50
2018-07-05T04:55:38.680Z,23.80
2018-07-05T04:58:19.144Z,24.40
2018-07-05T05:00:58.764Z,24.90
2018-07-05T05:03:38.285Z,25.30
2018-07-05T05:06:17.940Z,25.60
2018-07-05T05:08:57.542Z,25.80
2018-07-05T05:11:36.936Z,26.20
2018-07-05T05:14:16.529Z,26.50
2018-07-05T05:19:30.391Z,26.50
2018-07-05T05:22:10.037Z,26.90
2018-07-05T05:24:49.869Z,26.80
2018-07-05T05:27:29.332Z,26.70
2018-07-05T05:30:08.957Z,26.60
2018-07-05T05:32:48.549Z,26.20
2018-07-05T05:35:28.142Z,26.60
2018-07-05T05:38:08.773Z,27.20
2018-07-05T05:40:48.297Z,27.80
2018-07-05T05:43:27.797Z,27.90
2018-07-05T05:46:07.470Z,28.20
2018-07-05T05:48:46.942Z,28.20
2018-07-05T05:51:26.568Z,28.00
2018-07-05T05:54:07.533Z,27.50
2018-07-05T05:56:46.954Z,27.40
2018-07-05T06:02:00.127Z,28.20
2018-07-05T06:04:39.725Z,28.60
2018-07-05T06:09:53.824Z,28.20
2018-07-05T06:12:37.154Z,27.60
2018-07-05T06:15:16.811Z,27.70
2018-07-05T06:17:56.819Z,28.10
2018-07-05T06:20:36.477Z,28.50
2018-07-05T06:23:16.928Z,28.70
2018-07-05T06:25:56.539Z,28.20
2018-07-05T06:28:35.953Z,28.70
2018-07-05T06:33:49.898Z,29.70
2018-07-05T06:36:29.397Z,30.40
2018-07-05T06:39:08.996Z,30.50
2018-07-05T06:41:49.050Z,30.80
2018-07-05T06:44:28.638Z,30.90
2018-07-05T06:47:08.177Z,30.60
2018-07-05T06:49:48.499Z,29.60
2018-07-05T06:52:28.096Z,28.10
2018-07-05T06:57:41.240Z,26.50
2018-07-05T07:00:24.087Z,26.20
2018-07-05T07:03:03.617Z,25.70
2018-07-05T07:05:43.608Z,25.40
2018-07-05T07:08:23.043Z,25.40
2018-07-05T07:11:02.701Z,25.30
2018-07-05T07:13:46.280Z,25.40
2018-07-05T07:16:26.575Z,25.60
2018-07-05T07:19:06.895Z,25.60
2018-07-05T07:21:46.533Z,25.50
2018-07-05T07:26:59.548Z,25.40
2018-07-05T07:29:39.933Z,25.40
2018-07-05T07:32:20.581Z,25.40
2018-07-05T07:35:00.065Z,25.40
2018-07-05T07:37:39.686Z,25.10
2018-07-05T07:40:19.192Z,24.70
2018-07-05T07:42:47.235Z,25.10
2018-07-05T07:45:14.435Z,25.40
2018-07-05T07:47:41.951Z,25.40
2018-07-05T07:50:10.037Z,25.20
2018-07-05T07:52:38.348Z,25.60
2018-07-05T08:02:32.375Z,26.80
2018-07-05T08:04:59.689Z,26.80
2018-07-05T08:07:26.973Z,27.10
2018-07-05T08:09:54.624Z,27.30
2018-07-05T08:12:21.888Z,26.70
2018-07-05T08:14:54.391Z,26.50
2018-07-05T08:17:21.765Z,26.80
2018-07-05T08:19:49.072Z,27.40
2018-07-05T08:22:16.329Z,27.50
2018-07-05T08:24:43.579Z,27.70
2018-07-05T08:27:10.828Z,27.80
2018-07-05T08:29:40.869Z,28.20
2018-07-05T08:32:08.481Z,28.10
2018-07-05T08:34:35.764Z,28.10
2018-07-05T08:37:03.932Z,28.00
2018-07-05T08:39:31.301Z,28.30
2018-07-05T08:41:58.540Z,28.40
2018-07-05T08:44:25.768Z,28.20
2018-07-05T08:46:57.371Z,28.20
2018-07-05T08:49:24.612Z,28.20
2018-07-05T08:51:51.852Z,28.50
2018-07-05T08:54:19.096Z,27.90
2018-07-05T08:56:46.869Z,28.00
2018-07-05T08:59:14.126Z,27.80
2018-07-05T09:01:52.897Z,27.90
2018-07-05T09:04:20.144Z,27.60
2018-07-05T09:06:47.571Z,27.50
2018-07-05T09:09:14.807Z,27.90
2018-07-05T09:14:10.466Z,28.00
2018-07-05T09:16:42.209Z,28.20
2018-07-05T09:19:09.453Z,27.50
2018-07-05T09:21:36.707Z,27.20
2018-07-05T09:24:03.926Z,27.10
2018-07-05T09:26:31.180Z,27.20
2018-07-05T09:28:58.433Z,27.60
2018-07-05T09:33:57.657Z,27.50
2018-07-05T09:36:24.925Z,28.10
2018-07-05T09:38:52.172Z,28.10
2018-07-05T09:41:19.397Z,27.50
2018-07-05T09:46:18.041Z,27.50
2018-07-05T09:48:45.254Z,27.40
2018-07-05T09:51:12.523Z,27.30
2018-07-05T09:53:39.736Z,27.70
2018-07-05T09:56:06.932Z,28.00
2018-07-05T09:58:34.191Z,28.40
2018-07-05T10:01:01.445Z,27.90
2018-07-05T10:03:32.045Z,27.70
2018-07-05T10:05:59.221Z,27.80
2018-07-05T10:08:26.468Z,27.50
2018-07-05T10:10:53.731Z,28.10
2018-07-05T10:13:21.867Z,28.70
2018-07-05T10:15:49.437Z,29.20
2018-07-05T10:18:16.642Z,29.40
2018-07-05T10:20:44.074Z,29.70
2018-07-05T10:23:11.324Z,28.70
2018-07-05T10:25:38.573Z,28.60
2018-07-05T10:28:05.829Z,28.80
2018-07-05T10:30:45.528Z,28.90
2018-07-05T10:33:25.131Z,29.00
2018-07-05T10:35:53.280Z,29.20
2018-07-05T10:43:34.697Z,29.50
2018-07-05T10:46:14.256Z,29.70
2018-07-05T10:48:57.028Z,29.00
2018-07-05T10:51:36.702Z,29.20
2018-07-05T10:56:50.664Z,29.90
2018-07-05T10:59:30.208Z,29.90
2018-07-05T11:02:14.054Z,29.50
2018-07-05T11:04:54.367Z,30.40
2018-07-05T11:07:34.224Z,30.50
2018-07-05T11:10:13.617Z,30.80
2018-07-05T11:12:53.329Z,30.50
2018-07-05T11:15:32.860Z,29.80
2018-07-05T11:18:16.201Z,29.80
2018-07-05T11:23:29.445Z,30.00
2018-07-05T11:26:09.094Z,29.90
2018-07-05T11:28:48.625Z,29.30
2018-07-05T11:31:28.137Z,29.30
2018-07-05T11:34:07.637Z,30.20
2018-07-05T11:36:47.297Z,31.00
2018-07-05T11:39:27.715Z,31.20
2018-07-05T11:42:07.323Z,30.40
2018-07-05T11:44:46.861Z,30.30
2018-07-05T11:47:26.348Z,29.60
2018-07-05T11:50:09.124Z,29.50
2018-07-05T11:52:48.814Z,30.00
2018-07-05T11:55:29.211Z,30.40
2018-07-05T11:58:08.837Z,30.40
2018-07-05T12:00:48.518Z,30.40
2018-07-05T12:03:30.968Z,30.20
2018-07-05T12:06:13.513Z,30.40
2018-07-05T12:08:53.347Z,30.00
2018-07-05T12:11:32.900Z,29.10
2018-07-05T12:14:12.983Z,28.90
2018-07-05T12:16:52.594Z,29.30
2018-07-05T12:22:09.598Z,29.60
2018-07-05T12:24:49.770Z,29.80
2018-07-05T12:27:29.443Z,29.20
2018-07-05T12:32:42.615Z,29.10
2018-07-05T12:35:22.177Z,29.60
2018-07-05T12:38:01.716Z,29.80
2018-07-05T12:40:41.416Z,29.60
2018-07-05T12:43:21.911Z,29.20
2018-07-05T12:46:01.544Z,28.80
2018-07-05T12:48:41.141Z,28.90
2018-07-05T12:51:20.581Z,29.10
2018-07-05T12:54:00.009Z,28.90
2018-07-05T12:56:40.808Z,28.70
2018-07-05T13:01:54.875Z,28.30
2018-07-05T13:04:38.100Z,27.90
2018-07-05T13:07:17.654Z,28.00
2018-07-05T13:12:30.973Z,28.60
2018-07-05T13:15:10.673Z,29.20
2018-07-05T13:17:50.319Z,29.30
2018-07-05T13:20:33.496Z,30.00
2018-07-05T13:23:13.449Z,30.20
2018-07-05T13:25:53.100Z,29.80
2018-07-05T13:31:06.350Z,30.10
2018-07-05T13:33:45.777Z,30.10
2018-07-05T13:36:25.381Z,30.20
2018-07-05T13:39:05.342Z,30.40
2018-07-05T13:41:45.127Z,30.30
2018-07-05T13:44:24.761Z,30.10
2018-07-05T13:47:04.434Z,29.20
2018-07-05T13:49:43.887Z,27.50
2018-07-05T13:52:23.512Z,25.50
2018-07-05T13:57:38.079Z,23.90
2018-07-05T14:00:17.521Z,23.50
2018-07-05T14:02:57.873Z,23.20
2018-07-05T14:05:40.794Z,22.30
2018-07-05T14:08:20.332Z,21.30
2018-07-05T14:10:59.819Z,20.40
2018-07-05T14:13:39.402Z,19.90
2018-07-05T14:16:19.057Z,19.70
2018-07-05T14:21:35.374Z,19.30
2018-07-05T14:24:14.810Z,19.20
2018-07-05T14:26:55.373Z,19.20
2018-07-05T14:29:34.828Z,19.30
2018-07-05T14:32:14.436Z,19.30
2018-07-05T14:34:54.076Z,19.30
2018-07-05T14:37:33.659Z,19.20
2018-07-05T14:42:47.043Z,19.40
2018-07-05T14:45:27.210Z,19.40
2018-07-05T14:48:07.092Z,19.30
2018-07-05T14:50:46.801Z,19.20
2018-07-05T14:53:26.285Z,19.20
2018-07-05T14:56:05.825Z,19.20
2018-07-05T14:58:45.386Z,19.00
2018-07-05T15:01:24.804Z,18.90
2018-07-05T15:04:05.408Z,18.90
2018-07-05T15:06:44.813Z,18.90
2018-07-05T15:09:24.385Z,19.00
2018-07-05T15:12:04.046Z,19.00
2018-07-05T15:14:43.452Z,19.00
2018-07-05T15:19:57.351Z,19.00
2018-07-05T15:22:40.197Z,18.90
2018-07-05T15:25:19.840Z,18.80
2018-07-05T15:27:59.533Z,18.70
2018-07-05T15:30:39.025Z,18.70
2018-07-05T15:33:18.555Z,18.80
2018-07-05T15:35:58.385Z,18.70
2018-07-05T15:38:38.363Z,18.70
2018-07-05T15:41:17.968Z,18.70
2018-07-05T15:43:57.650Z,18.80
2018-07-05T15:46:37.259Z,18.80
2018-07-05T15:49:16.880Z,18.90
2018-07-05T15:51:57.195Z,18.80
2018-07-05T15:54:36.840Z,18.70
2018-07-05T15:57:16.532Z,18.60
2018-07-05T16:05:03.016Z,18.20
2018-07-05T16:07:46.697Z,18.20
2018-07-05T16:10:26.298Z,18.30
2018-07-05T16:13:05.813Z,18.20
2018-07-05T16:15:45.342Z,18.30
2018-07-05T16:18:24.984Z,18.20
2018-07-05T16:23:38.325Z,18.20
2018-07-05T16:28:52.228Z,18.10
2018-07-05T16:31:31.764Z,17.90
2018-07-05T16:34:11.469Z,18.00
2018-07-05T16:36:51.169Z,18.00
2018-07-05T16:39:34.192Z,17.80
2018-07-05T16:42:15.057Z,17.70
2018-07-05T16:44:54.640Z,17.60
2018-07-05T16:47:34.276Z,17.60
2018-07-05T16:50:13.859Z,17.70
2018-07-05T16:52:57.024Z,17.70
2018-07-05T16:55:36.672Z,17.80
2018-07-05T16:58:16.280Z,17.80
2018-07-05T17:00:55.719Z,17.90
2018-07-05T17:03:35.423Z,17.90
2018-07-05T17:06:15.187Z,18.00
2018-07-05T17:08:54.770Z,18.10
2018-07-05T17:11:35.591Z,18.20
2018-07-05T17:14:15.233Z,18.20
2018-07-05T17:16:54.985Z,18.20
2018-07-05T17:19:34.659Z,18.20
2018-07-05T17:22:14.439Z,18.20
2018-07-05T17:24:54.933Z,18.20
2018-07-05T17:27:34.693Z,18.30
2018-07-05T17:30:14.425Z,18.30
2018-07-05T17:32:54.245Z,18.30
2018-07-05T17:35:33.899Z,18.40
2018-07-05T17:38:13.598Z,18.40
2018-07-05T17:40:56.716Z,18.40
2018-07-05T17:43:36.265Z,18.40
2018-07-05T17:46:15.848Z,18.40
2018-07-05T17:48:55.475Z,18.40
2018-07-05T17:51:35.265Z,18.40
2018-07-05T17:54:15.746Z,18.50
2018-07-05T17:56:58.565Z,18.40
2018-07-05T17:59:38.357Z,18.50
2018-07-05T18:02:18.125Z,18.50
2018-07-05T18:04:59.716Z,18.50
2018-07-05T18:07:39.316Z,18.40
2018-07-05T18:10:29.640Z,18.50
2018-07-05T18:13:09.191Z,18.50
2018-07-05T18:15:48.935Z,18.50
2018-07-05T18:18:28.534Z,18.60
2018-07-05T18:21:08.301Z,18.60
2018-07-05T18:23:48.727Z,18.70
2018-07-05T18:26:28.396Z,18.70
2018-07-05T18:29:08.096Z,18.70
2018-07-05T18:31:47.758Z,18.80
2018-07-05T18:34:27.325Z,18.60
2018-07-05T18:37:07.443Z,18.70
2018-07-05T18:39:50.496Z,18.70
2018-07-05T18:42:30.204Z,18.70
2018-07-05T18:45:10.141Z,18.60
2018-07-05T18:47:50.211Z,18.60
2018-07-05T18:50:30.013Z,18.60
2018-07-05T18:53:09.792Z,18.50
2018-07-05T18:55:49.315Z,18.60
2018-07-05T18:58:29.237Z,18.50
2018-07-05T19:01:09.705Z,18.50
2018-07-05T19:03:49.387Z,18.50
2018-07-05T19:06:29.044Z,18.40
2018-07-05T19:09:08.629Z,18.40
2018-07-05T19:11:48.324Z,18.40
2018-07-05T19:14:28.116Z,18.30
2018-07-05T19:17:07.821Z,18.30
2018-07-05T19:19:47.460Z,18.30
2018-07-05T19:22:27.070Z,18.30
2018-07-05T19:25:06.527Z,18.30
2018-07-05T19:27:46.497Z,18.30
2018-07-05T19:30:26.189Z,18.30
2018-07-05T19:33:07.380Z,18.30
2018-07-05T19:35:47.054Z,18.30
2018-07-05T19:38:26.600Z,18.30
2018-07-05T19:41:12.424Z,18.30
2018-07-05T19:43:52.071Z,18.30
2018-07-05T19:46:32.139Z,18.30
2018-07-05T19:49:11.725Z,18.30
2018-07-05T19:51:51.409Z,18.30
2018-07-05T19:54:31.012Z,18.30
2018-07-05T19:57:10.512Z,18.20
2018-07-05T19:59:50.053Z,18.30
2018-07-05T20:05:04.003Z,18.30
2018-07-05T20:07:43.789Z,18.20
2018-07-05T20:10:23.609Z,18.20
2018-07-05T20:15:37.768Z,18.30
2018-07-05T20:18:17.467Z,18.30
2018-07-05T20:20:57.140Z,18.30
2018-07-05T20:23:36.799Z,18.30
2018-07-05T20:26:16.584Z,18.40
2018-07-05T20:28:56.020Z,18.40
2018-07-05T20:31:36.121Z,18.40
2018-07-05T20:34:15.709Z,18.40
2018-07-05T20:39:29.459Z,18.30
2018-07-05T20:42:13.068Z,18.40
2018-07-05T20:44:52.590Z,18.40
2018-07-05T20:47:32.150Z,18.30
2018-07-05T20:50:11.839Z,18.30
2018-07-05T20:52:51.272Z,18.30
2018-07-05T20:55:31.184Z,18.30
2018-07-05T20:58:10.773Z,18.30
2018-07-05T21:00:51.120Z,18.30
2018-07-05T21:03:30.671Z,18.30
2018-07-05T21:06:10.407Z,18.30
2018-07-05T21:08:49.941Z,18.20
2018-07-05T21:11:29.574Z,18.20
2018-07-05T21:14:09.236Z,18.20
2018-07-05T21:16:48.789Z,18.20
2018-07-05T21:19:28.928Z,18.20
2018-07-05T21:24:42.236Z,18.20
2018-07-05T21:27:21.770Z,18.30
2018-07-05T21:30:01.297Z,18.30
2018-07-05T21:32:41.760Z,18.30
2018-07-05T21:35:21.258Z,18.30
2018-07-05T21:40:34.573Z,18.40
2018-07-05T21:43:14.213Z,18.50
2018-07-05T21:45:53.697Z,18.50
2018-07-05T21:48:34.148Z,18.50
2018-07-05T21:51:13.786Z,18.40
2018-07-05T21:53:53.395Z,18.40
2018-07-05T21:56:33.161Z,18.40
2018-07-05T22:01:46.177Z,18.40
2018-07-05T22:04:25.720Z,18.40
2018-07-05T22:07:05.189Z,18.40
2018-07-05T22:09:45.568Z,18.40
2018-07-05T22:12:25.197Z,18.50
2018-07-05T22:15:04.836Z,18.50
2018-07-05T22:17:49.980Z,18.60
2018-07-05T22:20:36.070Z,18.60
2018-07-05T22:23:22.148Z,18.70
2018-07-05T22:26:07.085Z,18.70
2018-07-05T22:28:59.994Z,18.70
2018-07-05T22:31:39.375Z,18.70
2018-07-05T22:34:18.892Z,18.70
2018-07-05T22:36:58.500Z,18.70
2018-07-05T22:39:38.078Z,18.60
2018-07-05T22:42:18.031Z,18.60
2018-07-05T22:44:57.580Z,18.50
2018-07-05T22:47:37.209Z,18.50
2018-07-05T22:50:16.749Z,18.40
2018-07-05T22:52:56.298Z,18.40
2018-07-05T22:55:35.933Z,18.40
2018-07-05T22:58:15.368Z,18.40
2018-07-05T23:00:55.012Z,18.30
2018-07-05T23:03:34.468Z,18.30
2018-07-05T23:06:14.445Z,18.20
2018-07-05T23:08:54.044Z,18.20
2018-07-05T23:11:33.789Z,18.20
2018-07-05T23:14:16.377Z,18.20
2018-07-05T23:16:55.945Z,18.10
2018-07-05T23:19:35.838Z,18.10
2018-07-05T23:22:15.954Z,18.00
2018-07-05T23:24:55.489Z,18.00
2018-07-05T23:27:35.132Z,18.00
2018-07-05T23:30:25.285Z,18.00
2018-07-05T23:33:04.932Z,18.00
2018-07-05T23:35:44.341Z,18.00
2018-07-05T23:38:23.839Z,17.90
2018-07-05T23:41:03.389Z,17.90
2018-07-05T23:43:43.065Z,17.90
2018-07-05T23:46:26.257Z,17.90
2018-07-05T23:49:05.805Z,18.00
2018-07-05T23:51:45.438Z,18.00
2018-07-05T23:54:25.140Z,18.00
2018-07-05T23:57:04.716Z,18.10
2018-07-05T23:59:44.153Z,18.10
